Estación Meteorológica Peña el Pijo (Robertgarden) [ 12/09/19 16:25:00 CET ]

Fecha Hora Presion(HPa) Temp (°C) Humedad % Rocio (°C) Viento ( m/s) Direccion Lluvia 1Hora(mm) Lluvia 24H(mm) LLuvia Total(mm)
2019-Nov-07 01:01:43 1004.900 5.4 74 1.1         22.27
2019-Nov-07 02:03:29 1004.000 5.2 77 1.5         22.27
2019-Nov-07 03:03:12 1003.700 6.5 77 2.7         22.27
2019-Nov-07 04:01:53 1003.100 7.3 75 3.1         22.27
2019-Nov-07 05:01:41 1003.000 7.8 74 3.5         22.27
2019-Nov-07 06:01:55 1002.500 8.4 75 4.2         22.27
2019-Nov-07 07:01:58 1002.600 7.8 78 4.2         22.27
2019-Nov-07 08:01:55 1002.600 7.8 79 4.4         22.27
2019-Nov-07 09:01:47 1002.800 10.3 78 6.6         22.27
2019-Nov-07 10:01:41 1002.800 13.3 69 7.7         22.27
2019-Nov-07 11:01:31 1002.500 12.9 69 7.4         22.27
2019-Nov-07 12:01:35 1002.400 13.2 68 7.3         22.27
2019-Nov-07 13:01:25 1001.700 12.3 71 7.2         22.27
2019-Nov-07 14:01:31 1001.400 12.9 72 7.7         22.27
2019-Nov-07 15:01:24 1000.800 12.5 70 7.2         22.27
2019-Nov-07 16:01:09 1000.400 12.8 68 7.0 1.1 NNE     22.27
2019-Nov-07 17:01:57 1000.900 11.6 58 3.6 1.4 WNW     22.27
2019-Nov-07 18:01:33 1001.200 9.8 62 2.8 1.7 NE     22.27
2019-Nov-07 19:01:46 1001.700 8.6 65 2.4         22.27
2019-Nov-07 20:01:34 1001.900 7.3 68 1.8         22.27
2019-Nov-07 21:01:43 1002.200 7.0 69 1.7         22.27
2019-Nov-07 22:01:38 1002.000 6.5 65 0.4 0.9 NNE     22.27
2019-Nov-07 23:01:55 1001.800 6.3 66 0.4 2.5 NW     22.27

Temperatura Máxima:13°    Temperatura Mínima:
Presión Máxima:1004.900 Hpa    Presión Mínima:1000.400 Hpa


Volver